Time;durP1;ratioP1;P1;durP2;ratioP2;P2;SDS_P1;SDS_P2;PMS_P1;PMS_P2;Temp;Humidity;BMP_temperature;BMP_pressure;BME280_temperature;BME280_humidity;BME280_pressure;Samples;Min_cycle;Max_cycle;Signal;HPM_P1;HPM_P2
2024/04/09 00:01:38;;;;;;;4.55;1.20;;;14.20;59.30;;;;;;5381368;26;20019;-48
2024/04/09 00:04:23;;;;;;;5.30;2.10;;;14.20;59.40;;;;;;5348053;26;20018;-50
2024/04/09 00:07:10;;;;;;;4.57;1.13;;;14.10;59.20;;;;;;5340497;26;20354;-51
2024/04/09 00:09:55;;;;;;;3.72;1.20;;;14.10;59.30;;;;;;5339307;26;20051;-49
2024/04/09 00:12:43;;;;;;;3.25;1.15;;;14.10;59.30;;;;;;5359062;26;20082;-51
2024/04/09 00:15:29;;;;;;;5.47;1.98;;;14.10;59.40;;;;;;5354960;26;20025;-48
2024/04/09 00:18:17;;;;;;;3.97;1.40;;;14.10;59.40;;;;;;5380643;26;20015;-48
2024/04/09 00:21:02;;;;;;;3.53;1.02;;;14.00;59.30;;;;;;5349239;26;20011;-51
2024/04/09 00:23:48;;;;;;;4.03;1.50;;;14.00;59.40;;;;;;5348486;26;20076;-50
2024/04/09 00:26:35;;;;;;;5.60;1.20;;;14.00;59.40;;;;;;5367811;26;20013;-49
2024/04/09 00:29:20;;;;;;;2.75;1.10;;;13.90;59.30;;;;;;5346865;26;20011;-46
2024/04/09 00:32:05;;;;;;;4.00;1.30;;;14.00;59.50;;;;;;5349792;26;20015;-47
2024/04/09 00:34:50;;;;;;;5.55;1.52;;;13.90;59.40;;;;;;5346489;26;20018;-47
2024/04/09 00:37:35;;;;;;;2.30;1.10;;;13.90;59.40;;;;;;5344974;26;20031;-47
2024/04/09 00:40:21;;;;;;;4.00;1.75;;;13.90;59.50;;;;;;5350560;26;20515;-55
2024/04/09 00:43:08;;;;;;;4.47;1.30;;;13.90;59.60;;;;;;5344425;26;20287;-48
2024/04/09 00:45:55;;;;;;;4.07;1.77;;;13.90;59.60;;;;;;5353683;26;20014;-50
2024/04/09 00:48:41;;;;;;;3.75;1.00;;;13.80;59.50;;;;;;5350374;26;20023;-48
2024/04/09 00:51:32;;;;;;;3.15;1.80;;;13.80;59.50;;;;;;5363103;26;20030;-50
2024/04/09 00:54:18;;;;;;;5.30;1.33;;;13.80;59.60;;;;;;5354344;26;20018;-52
2024/04/09 00:57:04;;;;;;;3.22;1.00;;;13.80;59.60;;;;;;5366252;26;20790;-49
2024/04/09 00:59:49;;;;;;;7.00;1.95;;;13.80;59.70;;;;;;5349675;26;20023;-50
2024/04/09 01:02:34;;;;;;;3.72;1.00;;;13.80;59.70;;;;;;5353533;26;20738;-46
2024/04/09 01:05:18;;;;;;;2.13;0.90;;;13.70;59.60;;;;;;5354666;26;20011;-46
2024/04/09 01:08:05;;;;;;;4.22;1.00;;;13.70;59.70;;;;;;5356621;26;20011;-47
2024/04/09 01:10:50;;;;;;;2.83;1.02;;;13.70;59.70;;;;;;5362690;26;20063;-49
2024/04/09 01:13:38;;;;;;;3.60;1.40;;;13.70;59.80;;;;;;5347722;26;20346;-50
2024/04/09 01:16:22;;;;;;;4.45;1.63;;;13.70;59.80;;;;;;5378495;26;20007;-47
2024/04/09 01:19:07;;;;;;;3.30;1.05;;;13.70;59.90;;;;;;5348216;26;20010;-50
2024/04/09 01:21:53;;;;;;;2.35;1.17;;;13.70;59.90;;;;;;5371974;26;20014;-49
2024/04/09 01:24:39;;;;;;;2.47;1.20;;;13.70;60.00;;;;;;5322295;26;20019;-55
2024/04/09 01:27:25;;;;;;;3.92;1.23;;;13.70;60.00;;;;;;5367210;26;20023;-51
2024/04/09 01:30:12;;;;;;;6.03;1.48;;;13.60;59.90;;;;;;5351076;26;20015;-49
2024/04/09 01:32:57;;;;;;;4.57;1.08;;;13.70;60.10;;;;;;5356802;26;20019;-51
2024/04/09 01:35:42;;;;;;;3.75;1.05;;;13.60;60.00;;;;;;5346180;26;20322;-50
2024/04/09 01:38:27;;;;;;;4.85;1.20;;;13.60;60.00;;;;;;5348337;26;20015;-50
2024/04/09 01:41:13;;;;;;;3.47;1.13;;;13.60;60.10;;;;;;5347517;26;20060;-52
2024/04/09 01:43:58;;;;;;;6.78;1.55;;;13.60;60.10;;;;;;5361515;26;20240;-46
2024/04/09 01:46:42;;;;;;;4.88;1.45;;;13.60;60.20;;;;;;5353771;26;20373;-49
2024/04/09 01:49:27;;;;;;;2.25;0.98;;;13.60;60.30;;;;;;5353589;26;20354;-47
2024/04/09 01:52:12;;;;;;;2.33;0.80;;;13.60;60.30;;;;;;5356915;26;20456;-49
2024/04/09 01:54:57;;;;;;;3.03;0.90;;;13.60;60.40;;;;;;5350374;26;20027;-48
2024/04/09 01:57:41;;;;;;;3.50;1.00;;;13.60;60.40;;;;;;5371157;26;20018;-51
2024/04/09 02:00:27;;;;;;;2.60;1.17;;;13.60;60.40;;;;;;5400868;26;20019;-49
2024/04/09 02:03:11;;;;;;;3.38;1.20;;;13.60;60.50;;;;;;5383127;26;20006;-52
2024/04/09 02:05:57;;;;;;;4.65;1.38;;;13.60;60.50;;;;;;5375105;26;20039;-51
2024/04/09 02:08:42;;;;;;;3.75;1.23;;;13.60;60.60;;;;;;5377125;26;20009;-49
2024/04/09 02:11:28;;;;;;;2.47;1.17;;;13.50;60.40;;;;;;5384402;26;20475;-47
2024/04/09 02:14:12;;;;;;;3.00;0.98;;;13.50;60.50;;;;;;5373587;26;20411;-47
2024/04/09 02:16:57;;;;;;;3.00;1.15;;;13.50;60.50;;;;;;5389437;26;20349;-48
2024/04/09 02:19:41;;;;;;;3.50;0.98;;;13.60;60.70;;;;;;5377270;26;20565;-50
2024/04/09 02:22:29;;;;;;;2.03;0.70;;;13.50;60.60;;;;;;5386141;26;20167;-47
2024/04/09 02:25:13;;;;;;;2.80;0.65;;;13.50;60.70;;;;;;5385420;26;20006;-45
2024/04/09 02:27:58;;;;;;;3.00;0.88;;;13.50;60.70;;;;;;5402370;26;20019;-45
2024/04/09 02:30:43;;;;;;;2.25;0.80;;;13.50;60.80;;;;;;5368194;26;20332;-48
2024/04/09 02:33:28;;;;;;;1.17;0.80;;;13.50;60.80;;;;;;5381647;26;20020;-46
2024/04/09 02:36:13;;;;;;;1.42;0.60;;;13.50;60.90;;;;;;5379893;25;20010;-46
2024/04/09 02:38:57;;;;;;;1.73;0.63;;;13.50;60.90;;;;;;5400010;26;20431;-46
2024/04/09 02:41:42;;;;;;;3.30;0.90;;;13.50;61.00;;;;;;5394745;26;20419;-46
2024/04/09 02:44:29;;;;;;;1.55;0.70;;;13.50;61.00;;;;;;5394467;26;20069;-46
2024/04/09 02:47:14;;;;;;;2.33;0.60;;;13.50;61.00;;;;;;5377193;26;20008;-45
2024/04/09 02:49:58;;;;;;;1.15;0.45;;;13.50;61.00;;;;;;5376000;26;20520;-47
2024/04/09 02:52:43;;;;;;;1.75;0.60;;;13.50;61.10;;;;;;5368531;26;20023;-46
2024/04/09 02:55:28;;;;;;;1.02;0.50;;;13.50;61.10;;;;;;5391024;26;20011;-47
2024/04/09 02:58:12;;;;;;;2.10;0.45;;;13.40;60.90;;;;;;5381130;26;20019;-49
2024/04/09 03:01:04;;;;;;;0.95;0.35;;;13.50;61.20;;;;;;5377327;26;20007;-49
2024/04/09 03:03:49;;;;;;;2.17;0.88;;;13.40;61.00;;;;;;5378991;25;20770;-48
2024/04/09 03:06:34;;;;;;;1.60;0.60;;;13.40;61.10;;;;;;5384269;26;20006;-48
2024/04/09 03:09:19;;;;;;;2.25;0.88;;;13.40;61.10;;;;;;5403066;26;20037;-50
2024/04/09 03:12:05;;;;;;;1.00;0.50;;;13.40;61.20;;;;;;5389846;26;20006;-51
2024/04/09 03:14:51;;;;;;;1.33;0.40;;;13.30;61.00;;;;;;5383995;26;20271;-52
2024/04/09 03:17:36;;;;;;;0.75;0.40;;;13.30;61.10;;;;;;5396863;26;20728;-51
2024/04/09 03:20:21;;;;;;;0.85;0.50;;;13.20;61.00;;;;;;5383679;26;20018;-51
2024/04/09 03:23:06;;;;;;;0.80;0.32;;;13.20;61.00;;;;;;5379307;26;20038;-52
2024/04/09 03:25:50;;;;;;;2.08;0.50;;;13.20;61.10;;;;;;5374442;26;20306;-48
2024/04/09 03:28:36;;;;;;;1.45;0.55;;;13.20;61.10;;;;;;5399220;26;20023;-51
2024/04/09 03:31:20;;;;;;;1.13;0.73;;;13.20;61.20;;;;;;5382443;26;20017;-53
2024/04/09 03:34:06;;;;;;;1.17;0.30;;;13.10;61.00;;;;;;5386461;26;20575;-53
2024/04/09 03:36:51;;;;;;;1.38;0.30;;;13.10;61.10;;;;;;5393909;26;20479;-50
2024/04/09 03:39:35;;;;;;;1.40;0.40;;;13.10;61.10;;;;;;5398684;26;20713;-52
2024/04/09 03:42:21;;;;;;;1.83;0.50;;;13.00;61.00;;;;;;5393797;26;20562;-53
2024/04/09 03:45:09;;;;;;;1.90;0.40;;;13.10;61.20;;;;;;5383074;26;20068;-53
2024/04/09 03:47:53;;;;;;;0.45;0.35;;;13.00;61.10;;;;;;5385266;26;20084;-53
2024/04/09 03:50:38;;;;;;;1.15;0.60;;;13.00;61.10;;;;;;5398315;26;20018;-52
2024/04/09 03:53:24;;;;;;;0.88;0.40;;;13.00;61.20;;;;;;5381459;26;20014;-52
2024/04/09 03:56:09;;;;;;;0.68;0.47;;;13.00;61.20;;;;;;5391592;26;20401;-52
2024/04/09 03:58:54;;;;;;;0.75;0.38;;;12.90;61.00;;;;;;5385490;26;20026;-54
2024/04/09 04:01:39;;;;;;;1.63;0.50;;;13.00;61.20;;;;;;5376433;26;20051;-56
2024/04/09 04:04:24;;;;;;;1.02;0.60;;;13.00;61.30;;;;;;5405539;26;20169;-56
2024/04/09 04:07:12;;;;;;;0.75;0.50;;;12.90;61.10;;;;;;5395735;26;20028;-55
2024/04/09 04:09:56;;;;;;;1.75;0.63;;;12.90;61.20;;;;;;5395080;26;20011;-55
2024/04/09 04:12:41;;;;;;;1.13;0.85;;;12.90;61.20;;;;;;5386998;26;20022;-56
2024/04/09 04:15:26;;;;;;;2.08;1.30;;;12.90;61.20;;;;;;5374713;26;20010;-55
2024/04/09 04:18:11;;;;;;;1.75;0.70;;;12.80;61.10;;;;;;5387584;26;20062;-55
2024/04/09 04:20:56;;;;;;;3.25;0.80;;;12.90;61.30;;;;;;5385796;26;20049;-53
2024/04/09 04:23:42;;;;;;;1.10;0.47;;;12.80;61.10;;;;;;5382428;26;20025;-55
2024/04/09 04:26:27;;;;;;;1.58;0.68;;;12.80;61.20;;;;;;5404071;26;20056;-55
2024/04/09 04:29:13;;;;;;;1.52;0.43;;;12.80;61.20;;;;;;5384833;26;20006;-55
2024/04/09 04:31:57;;;;;;;1.48;0.50;;;12.80;61.20;;;;;;5374997;26;20413;-57
2024/04/09 04:34:41;;;;;;;1.38;0.50;;;12.80;61.20;;;;;;5380198;26;20357;-56
2024/04/09 04:37:26;;;;;;;3.65;0.70;;;12.80;61.30;;;;;;5396611;26;20014;-57
2024/04/09 04:40:10;;;;;;;1.05;0.60;;;12.80;61.40;;;;;;5406198;26;20014;-58
2024/04/09 04:42:55;;;;;;;0.63;0.30;;;12.80;61.40;;;;;;5375956;26;20088;-58
2024/04/09 04:45:40;;;;;;;1.40;0.38;;;12.70;61.20;;;;;;5390269;26;20090;-56
2024/04/09 04:48:27;;;;;;;0.77;0.40;;;12.70;61.20;;;;;;5391674;26;20014;-57
2024/04/09 04:51:12;;;;;;;0.77;0.30;;;12.80;61.40;;;;;;5408241;26;20059;-56
2024/04/09 04:53:56;;;;;;;1.35;0.45;;;12.70;61.20;;;;;;5394565;26;20044;-56
2024/04/09 04:56:42;;;;;;;0.70;0.30;;;12.80;61.40;;;;;;5376942;26;20157;-58
2024/04/09 04:59:27;;;;;;;0.88;0.60;;;12.80;61.40;;;;;;5383649;26;20014;-57
2024/04/09 05:02:12;;;;;;;0.35;0.35;;;12.70;61.30;;;;;;5389041;26;20017;-57
2024/04/09 05:04:57;;;;;;;0.98;0.40;;;12.70;61.20;;;;;;5398763;26;20080;-56
2024/04/09 05:07:43;;;;;;;2.38;0.60;;;12.70;61.30;;;;;;5383170;26;20514;-57
2024/04/09 05:10:27;;;;;;;1.98;0.57;;;12.80;61.40;;;;;;5396662;26;20013;-56
2024/04/09 05:13:13;;;;;;;0.95;0.30;;;12.70;61.30;;;;;;5381678;26;20026;-59
2024/04/09 05:15:58;;;;;;;0.47;0.30;;;12.70;61.30;;;;;;5372755;26;20493;-56
2024/04/09 05:18:43;;;;;;;2.05;1.25;;;12.70;61.30;;;;;;5390134;26;20026;-57
2024/04/09 05:21:28;;;;;;;1.85;0.50;;;12.60;61.10;;;;;;5402506;26;20072;-57
2024/04/09 05:24:12;;;;;;;0.88;0.30;;;12.60;61.20;;;;;;5395855;26;20010;-58
2024/04/09 05:26:57;;;;;;;1.20;1.00;;;12.60;61.20;;;;;;5348086;26;20756;-55
2024/04/09 05:29:42;;;;;;;0.70;0.25;;;12.60;61.20;;;;;;5355279;26;20007;-58
2024/04/09 05:32:28;;;;;;;9.63;0.73;;;12.60;61.20;;;;;;5367025;26;20106;-57
2024/04/09 05:35:18;;;;;;;0.85;0.85;;;12.60;61.20;;;;;;5388629;26;20022;-56
2024/04/09 05:38:03;;;;;;;1.23;0.28;;;12.60;61.20;;;;;;5383017;26;20075;-57
2024/04/09 05:40:57;;;;;;;1.02;0.38;;;12.60;61.20;;;;;;5380827;26;20045;-57
2024/04/09 05:43:42;;;;;;;1.83;0.50;;;12.60;61.20;;;;;;5366139;26;20006;-57
2024/04/09 05:46:27;;;;;;;0.77;0.35;;;12.60;61.10;;;;;;5359661;26;20015;-58
2024/04/09 05:49:11;;;;;;;0.40;0.30;;;12.60;61.10;;;;;;5375653;26;20537;-56
2024/04/09 05:51:56;;;;;;;1.25;0.40;;;12.60;61.00;;;;;;5385422;26;20010;-57
2024/04/09 05:54:43;;;;;;;1.05;0.40;;;12.60;61.00;;;;;;5373323;26;20606;-57
2024/04/09 05:57:32;;;;;;;0.90;0.50;;;12.60;60.90;;;;;;5384057;26;20018;-56
2024/04/09 06:00:20;;;;;;;1.05;0.45;;;12.60;60.90;;;;;;5379585;26;20067;-58
2024/04/09 06:03:05;;;;;;;1.13;0.43;;;12.60;60.90;;;;;;5381266;26;20017;-60
2024/04/09 06:05:51;;;;;;;1.20;0.32;;;12.50;60.60;;;;;;5371428;26;20400;-58
2024/04/09 06:08:36;;;;;;;0.80;0.30;;;12.50;60.60;;;;;;5383636;26;20021;-59
2024/04/09 06:11:21;;;;;;;0.30;0.20;;;12.50;60.70;;;;;;5376297;26;20015;-54
2024/04/09 06:14:06;;;;;;;1.05;0.35;;;12.60;61.00;;;;;;5389387;26;20015;-57
2024/04/09 06:16:52;;;;;;;0.93;0.45;;;12.60;61.00;;;;;;5366791;26;20042;-56
2024/04/09 06:19:37;;;;;;;2.05;0.50;;;12.60;60.90;;;;;;5387396;26;20550;-57
2024/04/09 06:22:21;;;;;;;1.10;0.32;;;12.60;60.90;;;;;;5383486;26;20081;-58
2024/04/09 06:25:06;;;;;;;0.30;0.20;;;12.60;60.80;;;;;;5369564;26;20097;-58
2024/04/09 06:27:51;;;;;;;0.35;0.30;;;12.50;61.20;;;;;;5371255;26;20737;-58
2024/04/09 06:30:36;;;;;;;1.08;0.40;;;12.50;60.60;;;;;;5385560;26;20569;-56
2024/04/09 06:33:21;;;;;;;0.50;0.40;;;12.50;60.70;;;;;;5384068;26;20010;-58
2024/04/09 06:36:06;;;;;;;1.95;0.30;;;12.50;60.60;;;;;;5370824;26;20007;-58
2024/04/09 06:38:51;;;;;;;0.93;0.30;;;12.40;60.40;;;;;;5383276;26;20505;-58
2024/04/09 06:41:35;;;;;;;1.08;0.20;;;12.40;60.40;;;;;;5380536;26;20023;-58
2024/04/09 06:44:20;;;;;;;0.88;0.43;;;12.40;60.40;;;;;;5377088;26;20023;-56
2024/04/09 06:47:05;;;;;;;0.30;0.20;;;12.40;60.40;;;;;;5385309;26;20056;-57
2024/04/09 06:49:49;;;;;;;1.05;0.30;;;12.40;60.30;;;;;;5381960;26;20673;-57
2024/04/09 06:52:35;;;;;;;0.50;0.20;;;12.40;60.30;;;;;;5378177;26;20113;-58
2024/04/09 06:55:20;;;;;;;0.55;0.25;;;12.30;60.10;;;;;;5379516;26;20612;-56
2024/04/09 06:58:04;;;;;;;0.95;0.52;;;12.30;60.00;;;;;;5367614;26;20813;-58
2024/04/09 07:00:49;;;;;;;1.08;0.30;;;12.30;60.00;;;;;;5397563;26;20053;-58
2024/04/09 07:03:34;;;;;;;0.52;0.25;;;12.30;59.90;;;;;;5385420;26;20076;-57
2024/04/09 07:06:19;;;;;;;0.65;0.30;;;12.30;59.80;;;;;;5385131;26;20019;-58
2024/04/09 07:09:04;;;;;;;0.77;0.30;;;12.30;59.70;;;;;;5388443;26;20018;-57
2024/04/09 07:11:49;;;;;;;1.05;0.50;;;12.30;59.70;;;;;;5383829;26;20022;-57
2024/04/09 07:14:34;;;;;;;0.20;0.20;;;12.40;59.80;;;;;;5383000;26;20507;-56
2024/04/09 07:17:19;;;;;;;0.55;0.20;;;12.40;59.70;;;;;;5384768;26;20089;-59
2024/04/09 07:20:04;;;;;;;0.55;0.20;;;12.40;59.60;;;;;;5382235;26;20009;-59
2024/04/09 07:22:49;;;;;;;1.35;1.25;;;12.40;59.50;;;;;;5381154;26;20480;-56
2024/04/09 07:25:34;;;;;;;1.52;0.30;;;12.40;59.50;;;;;;5377578;26;20090;-57
2024/04/09 07:28:18;;;;;;;1.13;0.32;;;12.40;59.50;;;;;;5364906;26;20421;-57
2024/04/09 07:31:04;;;;;;;1.27;0.45;;;12.50;59.60;;;;;;5388204;26;20564;-57
2024/04/09 07:33:48;;;;;;;1.38;0.60;;;12.50;59.50;;;;;;5349659;26;20018;-56
2024/04/09 07:36:34;;;;;;;2.05;0.52;;;12.60;59.60;;;;;;5378979;26;20077;-56
2024/04/09 07:39:19;;;;;;;2.00;0.60;;;12.60;59.50;;;;;;5385329;26;20551;-58
2024/04/09 07:42:04;;;;;;;2.50;0.77;;;12.60;59.40;;;;;;5391653;26;20067;-58
2024/04/09 07:44:48;;;;;;;0.63;0.50;;;12.70;59.50;;;;;;5381369;26;20014;-57
2024/04/09 07:47:34;;;;;;;1.45;0.88;;;12.70;59.30;;;;;;5388571;26;20067;-56
2024/04/09 07:50:19;;;;;;;2.30;0.60;;;12.70;59.20;;;;;;5382977;26;20136;-58
2024/04/09 07:53:04;;;;;;;1.55;0.50;;;12.80;59.30;;;;;;5387272;26;20358;-57
2024/04/09 07:55:49;;;;;;;0.47;0.35;;;12.90;59.40;;;;;;5374029;26;20605;-57
2024/04/09 07:58:34;;;;;;;1.80;0.50;;;13.00;59.40;;;;;;5406382;26;20705;-57
2024/04/09 08:01:20;;;;;;;2.75;0.57;;;13.00;59.20;;;;;;5373930;26;20093;-57
2024/04/09 08:04:06;;;;;;;0.82;0.40;;;13.10;59.60;;;;;;5381207;26;20014;-57
2024/04/09 08:06:50;;;;;;;1.58;0.60;;;13.20;59.30;;;;;;5383141;26;20206;-56
2024/04/09 08:09:35;;;;;;;0.63;0.43;;;13.30;59.30;;;;;;5378563;26;20091;-57
2024/04/09 08:12:20;;;;;;;0.52;0.50;;;13.30;59.10;;;;;;5373940;26;20010;-56
2024/04/09 08:15:06;;;;;;;1.33;0.80;;;13.40;59.10;;;;;;5396254;26;20059;-56
2024/04/09 08:17:51;;;;;;;1.23;0.40;;;13.50;59.20;;;;;;5382662;26;20073;-57
2024/04/09 08:20:36;;;;;;;0.63;0.30;;;13.60;59.10;;;;;;5377655;26;20085;-57
2024/04/09 08:23:20;;;;;;;1.27;0.47;;;13.60;59.00;;;;;;5383509;26;20036;-57
2024/04/09 08:26:05;;;;;;;1.65;0.68;;;13.70;59.00;;;;;;5385686;26;20010;-57
2024/04/09 08:28:53;;;;;;;2.22;1.05;;;13.80;59.00;;;;;;5377185;26;20010;-57
2024/04/09 08:31:37;;;;;;;2.10;0.47;;;13.90;59.00;;;;;;5389572;26;20015;-57
2024/04/09 08:34:22;;;;;;;2.58;0.63;;;14.00;59.10;;;;;;5363188;26;20011;-56
2024/04/09 08:37:07;;;;;;;0.50;0.30;;;14.10;59.10;;;;;;5374163;26;20339;-57
2024/04/09 08:39:54;;;;;;;1.80;0.70;;;14.20;59.00;;;;;;5373756;26;20396;-58
2024/04/09 08:42:39;;;;;;;1.05;0.50;;;14.40;59.20;;;;;;5379007;26;20061;-56
2024/04/09 08:45:24;;;;;;;1.48;0.50;;;14.50;59.00;;;;;;5387899;26;20010;-58
2024/04/09 08:48:10;;;;;;;1.40;0.60;;;14.70;59.00;;;;;;5380043;26;20014;-57
2024/04/09 08:50:59;;;;;;;0.98;0.50;;;14.90;59.00;;;;;;5384861;26;20178;-58
2024/04/09 08:53:45;;;;;;;0.88;0.40;;;15.10;59.10;;;;;;5379041;26;20325;-58
2024/04/09 08:56:30;;;;;;;1.67;0.60;;;15.30;59.10;;;;;;5383011;26;20162;-57
2024/04/09 08:59:15;;;;;;;1.08;0.70;;;15.40;59.00;;;;;;5368989;26;20575;-57
2024/04/09 09:02:09;;;;;;;2.92;0.90;;;15.40;58.80;;;;;;5387108;26;20483;-57
2024/04/09 09:04:54;;;;;;;1.77;0.80;;;15.60;58.90;;;;;;5379446;26;20643;-59
2024/04/09 09:07:40;;;;;;;1.83;0.65;;;15.70;58.90;;;;;;5380214;26;20186;-58
2024/04/09 09:10:25;;;;;;;1.95;0.70;;;15.70;58.70;;;;;;5383254;26;20017;-56
2024/04/09 09:13:09;;;;;;;1.27;0.65;;;15.80;58.70;;;;;;5382767;26;20788;-58
2024/04/09 09:15:56;;;;;;;2.65;0.70;;;15.90;58.80;;;;;;5375266;26;20861;-58
2024/04/09 09:18:41;;;;;;;4.53;1.45;;;16.00;58.90;;;;;;5367244;26;20078;-58
2024/04/09 09:21:26;;;;;;;3.15;0.80;;;16.00;58.70;;;;;;5355840;26;20023;-56
2024/04/09 09:24:11;;;;;;;1.80;0.80;;;16.10;58.70;;;;;;5375872;26;20718;-58
2024/04/09 09:26:59;;;;;;;1.98;0.77;;;16.20;58.60;;;;;;5388057;26;20030;-57
2024/04/09 09:29:44;;;;;;;3.20;1.40;;;16.30;58.60;;;;;;5369290;26;20022;-58
2024/04/09 09:32:29;;;;;;;2.75;1.00;;;16.40;58.50;;;;;;5384297;26;20050;-57
2024/04/09 09:35:19;;;;;;;4.68;1.08;;;16.50;58.30;;;;;;5381014;26;20552;-57
2024/04/09 09:38:04;;;;;;;3.15;0.80;;;16.60;58.20;;;;;;5388506;26;20029;-58
2024/04/09 09:40:50;;;;;;;2.55;1.30;;;16.60;58.10;;;;;;5379217;26;20081;-57
2024/04/09 09:43:37;;;;;;;3.05;0.80;;;16.60;58.00;;;;;;5376090;26;20016;-57
2024/04/09 09:46:23;;;;;;;1.92;0.98;;;16.70;58.00;;;;;;5379253;26;20025;-57
2024/04/09 09:49:08;;;;;;;4.68;1.60;;;16.80;58.10;;;;;;5384074;26;20611;-56
2024/04/09 09:51:53;;;;;;;2.90;1.10;;;16.80;57.90;;;;;;5396287;26;20058;-58
2024/04/09 09:54:38;;;;;;;2.80;1.27;;;16.90;57.90;;;;;;5386920;26;20080;-58
2024/04/09 09:57:24;;;;;;;3.30;1.05;;;17.00;57.90;;;;;;5386736;26;20765;-58
2024/04/09 10:00:12;;;;;;;2.28;1.10;;;17.10;57.80;;;;;;5379200;26;20015;-57
2024/04/09 10:02:58;;;;;;;2.15;1.00;;;17.20;57.80;;;;;;5367187;26;20293;-57
2024/04/09 10:05:42;;;;;;;3.08;1.25;;;17.40;57.90;;;;;;5373244;26;20074;-57
2024/04/09 10:08:28;;;;;;;4.28;1.40;;;17.50;57.80;;;;;;5384807;26;20087;-57
2024/04/09 10:11:13;;;;;;;2.60;0.90;;;17.60;57.60;;;;;;5392512;26;20495;-57
2024/04/09 10:14:02;;;;;;;4.40;1.60;;;17.70;57.40;;;;;;5376464;26;20489;-57
2024/04/09 10:16:47;;;;;;;3.60;1.40;;;17.80;57.30;;;;;;5373678;26;20019;-57
2024/04/09 10:19:35;;;;;;;2.60;1.13;;;17.90;57.20;;;;;;5399604;26;20006;-58
2024/04/09 10:22:20;;;;;;;2.42;1.30;;;17.90;57.00;;;;;;5395105;26;20018;-58
2024/04/09 10:25:22;;;;;;;1.23;0.85;;;18.00;57.00;;;;;;5376754;26;20015;-58
2024/04/09 10:28:15;;;;;;;3.22;1.20;;;18.20;57.00;;;;;;5390310;26;20019;-58
2024/04/09 10:31:08;;;;;;;4.40;1.92;;;18.30;56.90;;;;;;5394890;26;20009;-58
2024/04/09 10:33:58;;;;;;;5.65;1.83;;;18.30;56.60;;;;;;5394705;26;20086;-57
2024/04/09 10:36:44;;;;;;;4.57;1.92;;;18.40;56.50;;;;;;5385380;26;20079;-59
2024/04/09 10:39:32;;;;;;;2.58;1.25;;;18.50;56.30;;;;;;5372315;26;20073;-58
2024/04/09 10:42:19;;;;;;;3.13;1.40;;;18.60;56.30;;;;;;5396889;26;20071;-59
2024/04/09 10:45:04;;;;;;;2.63;1.10;;;18.70;56.30;;;;;;5380818;26;20252;-58
2024/04/09 10:47:52;;;;;;;2.78;1.10;;;18.80;56.20;;;;;;5385976;26;20068;-66
2024/04/09 10:50:41;;;;;;;3.55;1.73;;;18.90;56.00;;;;;;5384724;26;20014;-58
2024/04/09 10:53:25;;;;;;;2.92;1.08;;;19.00;56.00;;;;;;5381831;26;20310;-57
2024/04/09 10:56:11;;;;;;;3.13;1.38;;;19.00;55.70;;;;;;5374683;26;20014;-57
2024/04/09 10:58:59;;;;;;;2.67;1.10;;;19.20;55.90;;;;;;5395046;26;20125;-58
2024/04/09 11:01:43;;;;;;;2.92;1.50;;;19.20;55.70;;;;;;5380106;26;20400;-58
2024/04/09 11:04:28;;;;;;;3.17;1.23;;;19.30;55.60;;;;;;5381424;26;20058;-57
2024/04/09 11:07:14;;;;;;;1.27;0.80;;;19.40;55.60;;;;;;5371927;26;20011;-58
2024/04/09 11:09:59;;;;;;;2.83;1.08;;;19.40;55.30;;;;;;5369543;26;20690;-60
2024/04/09 11:12:52;;;;;;;2.40;1.10;;;19.50;55.10;;;;;;5370496;26;20019;-58
2024/04/09 11:15:39;;;;;;;1.55;0.90;;;19.60;55.10;;;;;;5394375;26;20488;-58
2024/04/09 11:18:25;;;;;;;4.07;1.10;;;19.60;55.00;;;;;;5390311;26;20014;-58
2024/04/09 11:21:09;;;;;;;1.58;0.85;;;19.70;55.00;;;;;;5385622;26;20018;-59
2024/04/09 11:23:55;;;;;;;4.55;1.83;;;19.70;54.70;;;;;;5385801;26;20023;-58
2024/04/09 11:26:43;;;;;;;2.85;1.30;;;19.80;54.80;;;;;;5392770;26;20113;-58
2024/04/09 11:29:28;;;;;;;4.35;1.00;;;19.90;54.70;;;;;;5382210;26;20023;-61
2024/04/09 11:32:14;;;;;;;1.90;0.90;;;19.90;54.60;;;;;;5390923;26;20091;-58
2024/04/09 11:34:59;;;;;;;2.28;1.20;;;19.90;54.40;;;;;;5385426;26;20367;-58
2024/04/09 11:37:55;;;;;;;1.88;0.98;;;20.00;54.40;;;;;;5389943;26;20424;-58
2024/04/09 11:40:40;;;;;;;2.47;1.00;;;19.90;53.90;;;;;;5398751;26;20124;-57
2024/04/09 11:43:25;;;;;;;2.40;1.15;;;20.10;54.20;;;;;;5365794;26;20186;-58
2024/04/09 11:46:10;;;;;;;2.00;1.10;;;20.10;54.00;;;;;;5378520;26;20448;-57
2024/04/09 11:48:55;;;;;;;1.73;0.80;;;20.20;53.90;;;;;;5384929;26;20011;-57
2024/04/09 11:51:41;;;;;;;3.80;1.30;;;20.30;53.90;;;;;;5373337;26;20010;-58
2024/04/09 11:54:25;;;;;;;2.10;1.08;;;20.30;53.80;;;;;;5385181;26;20532;-58
2024/04/09 11:57:12;;;;;;;2.47;1.25;;;20.40;53.90;;;;;;5365165;26;20015;-58
2024/04/09 11:59:57;;;;;;;3.22;1.27;;;20.40;53.60;;;;;;5384129;26;20670;-58
2024/04/09 12:02:45;;;;;;;2.25;1.50;;;20.50;53.60;;;;;;5389066;26;20014;-57
2024/04/09 12:05:31;;;;;;;5.90;1.52;;;20.50;53.40;;;;;;5382405;26;20562;-58
2024/04/09 12:08:16;;;;;;;2.67;0.85;;;20.50;53.30;;;;;;5390399;26;20025;-57
2024/04/09 12:11:02;;;;;;;3.10;1.17;;;20.60;53.20;;;;;;5384470;26;20615;-58
2024/04/09 12:13:46;;;;;;;2.22;1.35;;;20.60;53.10;;;;;;5393371;26;20014;-58
2024/04/09 12:16:32;;;;;;;1.58;0.95;;;20.60;53.00;;;;;;5372505;26;20519;-58
2024/04/09 12:19:17;;;;;;;2.90;0.98;;;20.60;52.80;;;;;;5401042;26;20404;-57
2024/04/09 12:22:03;;;;;;;1.40;0.90;;;20.60;52.80;;;;;;5385517;26;20055;-57
2024/04/09 12:24:49;;;;;;;5.05;1.50;;;20.60;52.80;;;;;;5384445;26;20042;-57
2024/04/09 12:27:34;;;;;;;2.03;0.80;;;20.60;52.80;;;;;;5381781;26;20025;-57
2024/04/09 12:30:19;;;;;;;1.85;0.70;;;20.70;52.80;;;;;;5379083;26;20468;-57
2024/04/09 12:33:05;;;;;;;2.47;1.10;;;20.80;52.60;;;;;;5382570;26;20443;-56
2024/04/09 12:35:49;;;;;;;1.33;1.00;;;20.90;52.70;;;;;;5374086;26;20497;-57
2024/04/09 12:38:34;;;;;;;2.10;1.27;;;20.90;52.50;;;;;;5387290;26;20013;-57
2024/04/09 12:41:18;;;;;;;2.03;0.90;;;20.90;52.30;;;;;;5372876;26;20398;-57
2024/04/09 12:44:03;;;;;;;0.95;0.70;;;21.00;52.50;;;;;;5374149;26;20092;-57
2024/04/09 12:46:48;;;;;;;1.63;0.90;;;21.00;52.50;;;;;;5373280;26;20559;-58
2024/04/09 12:49:33;;;;;;;2.83;1.45;;;21.00;52.60;;;;;;5384800;26;20449;-58
2024/04/09 12:52:18;;;;;;;3.67;1.05;;;21.10;52.80;;;;;;5384878;26;20390;-57
2024/04/09 12:55:03;;;;;;;1.95;0.80;;;21.20;52.90;;;;;;5315772;26;20027;-58
2024/04/09 12:57:48;;;;;;;1.83;0.90;;;21.40;53.10;;;;;;5338872;26;20347;-57
2024/04/09 13:00:36;;;;;;;0.80;0.70;;;21.50;52.90;;;;;;5334633;26;20335;-58
2024/04/09 13:03:21;;;;;;;1.33;0.55;;;21.70;53.00;;;;;;5349007;26;20366;-57
2024/04/09 13:06:06;;;;;;;1.75;0.90;;;21.80;53.00;;;;;;5347874;26;20023;-57
2024/04/09 13:08:52;;;;;;;1.40;0.82;;;21.90;52.90;;;;;;5349248;26;20050;-58
2024/04/09 13:11:38;;;;;;;1.33;0.85;;;22.10;53.00;;;;;;5348621;26;20274;-62
2024/04/09 13:14:22;;;;;;;2.30;0.60;;;22.20;52.80;;;;;;5356956;26;20039;-58
2024/04/09 13:17:08;;;;;;;0.93;0.60;;;22.30;52.80;;;;;;5348218;26;20402;-63
2024/04/09 13:19:53;;;;;;;1.60;0.82;;;22.30;52.60;;;;;;5365427;26;20022;-57
2024/04/09 13:22:37;;;;;;;2.92;1.50;;;22.30;52.50;;;;;;5351655;26;20081;-56
2024/04/09 13:25:23;;;;;;;2.05;0.70;;;22.30;52.40;;;;;;5345010;26;20093;-57
2024/04/09 13:28:08;;;;;;;0.98;0.88;;;22.30;52.40;;;;;;5348367;26;20007;-58
2024/04/09 13:30:52;;;;;;;2.22;0.68;;;22.40;52.50;;;;;;5337628;26;20015;-61
2024/04/09 13:33:37;;;;;;;2.53;0.88;;;22.40;52.40;;;;;;5347357;26;20041;-57
2024/04/09 13:36:22;;;;;;;2.35;0.70;;;22.40;52.30;;;;;;5347053;26;20458;-57
2024/04/09 13:39:07;;;;;;;1.83;1.13;;;22.50;52.40;;;;;;5360701;26;20464;-55
2024/04/09 13:41:52;;;;;;;1.83;0.65;;;22.70;52.40;;;;;;5333410;26;20103;-60
2024/04/09 13:44:36;;;;;;;2.13;0.70;;;22.90;52.40;;;;;;5367944;26;20003;-58
2024/04/09 13:47:21;;;;;;;1.92;0.65;;;23.00;52.30;;;;;;5354319;26;20531;-58
2024/04/09 13:50:06;;;;;;;1.88;0.65;;;23.10;52.20;;;;;;5361628;26;20110;-57
2024/04/09 13:52:52;;;;;;;1.25;0.50;;;23.30;52.40;;;;;;5345682;26;20298;-55
2024/04/09 13:55:36;;;;;;;1.42;0.60;;;23.40;52.40;;;;;;5342521;26;20601;-57
2024/04/09 13:58:21;;;;;;;2.28;0.70;;;23.60;52.40;;;;;;5348270;26;20074;-57
2024/04/09 14:01:06;;;;;;;2.28;0.73;;;23.70;52.40;;;;;;5368129;26;20614;-57
2024/04/09 14:03:51;;;;;;;1.92;0.55;;;23.80;52.40;;;;;;5342641;26;20019;-59
2024/04/09 14:06:36;;;;;;;1.27;0.50;;;24.00;52.50;;;;;;5341310;26;20066;-60
2024/04/09 14:09:21;;;;;;;1.30;0.52;;;24.20;52.50;;;;;;5360944;26;20083;-57
2024/04/09 14:12:07;;;;;;;2.38;0.80;;;24.40;52.50;;;;;;5351026;26;20006;-57
2024/04/09 14:14:52;;;;;;;1.42;0.70;;;24.60;52.60;;;;;;5361574;26;20642;-58
2024/04/09 14:17:39;;;;;;;2.63;0.63;;;24.70;52.50;;;;;;5340133;26;20081;-57
2024/04/09 14:20:23;;;;;;;2.80;0.95;;;24.90;52.60;;;;;;5357633;26;25992;-57
2024/04/09 14:23:09;;;;;;;1.63;0.57;;;25.00;52.40;;;;;;5339689;26;20572;-57